Terminal Aerodrome Forecast
Issued by NWS

Home | Current Version | Previous Version | Text Only | Print | Product List | Glossary On
Versions: 1 2 3 4 5 6 7 8 9 10 11 12 13
000
FTUS45 KABQ 310539
TAFSAF
TAF
KSAF 310539Z 3106/0106 VRB05KT P6SM FEW110 SCT150
      TEMPO 3106/3109 32010G17KT BKN100
     FM311100 01008KT P6SM SCT100 SCT140
     FM312000 25009G16KT P6SM SCT090 SCT150
     FM312300 26009KT P6SM VCSH SCT090 BKN120=

USA.gov is the U.S. government's official web portal to all federal, state and local government web resources and services.